Terminal Aerodrome Forecast
Issued by NWS

Home | Current Version | Previous Version | Text Only | Print | Product List | Glossary On
Versions: 1 2 3 4 5 6 7 8 9 10 11 12 13 14
000
FTUS46 KLOX 032345
TAFSBP
TAF
KSBP 032345Z 0400/0424 30012KT P6SM SKC
     FM040400 VRB03KT P6SM SKC
     FM040800 VRB03KT 3SM BR OVC005
     FM041600 VRB03KT 6SM HZ OVC009
     FM041900 28007KT P6SM SCT012
     FM042200 29014KT P6SM SKC=

USA.gov is the U.S. government's official web portal to all federal, state and local government web resources and services.